createdAt,value
2022-11-20T00:02:25.373Z,15.77
2022-11-20T00:04:54.897Z,12.57
2022-11-20T00:07:24.518Z,17.20
2022-11-20T00:09:54.222Z,19.90
2022-11-20T00:12:23.810Z,17.85
2022-11-20T00:14:55.981Z,16.33
2022-11-20T00:17:25.591Z,14.45
2022-11-20T00:19:55.603Z,17.40
2022-11-20T00:22:25.214Z,20.65
2022-11-20T00:24:54.824Z,16.98
2022-11-20T00:27:24.425Z,21.90
2022-11-20T00:29:56.636Z,15.98
2022-11-20T00:32:26.255Z,16.13
2022-11-20T00:34:55.926Z,17.02
2022-11-20T00:37:25.494Z,15.77
2022-11-20T00:39:55.176Z,15.07
2022-11-20T00:42:24.736Z,14.68
2022-11-20T00:44:57.084Z,18.15
2022-11-20T00:47:26.657Z,18.58
2022-11-20T00:49:56.236Z,16.48
2022-11-20T00:52:25.841Z,16.50
2022-11-20T00:54:55.462Z,14.18
2022-11-20T00:57:25.054Z,16.58
2022-11-20T00:59:57.296Z,18.10
2022-11-20T01:02:26.869Z,20.33
2022-11-20T01:04:56.393Z,15.90
2022-11-20T01:07:26.027Z,19.05
2022-11-20T01:09:55.698Z,15.00
2022-11-20T01:12:25.319Z,15.48
2022-11-20T01:14:57.505Z,18.83
2022-11-20T01:17:27.062Z,16.17
2022-11-20T01:19:56.592Z,15.25
2022-11-20T01:22:26.310Z,17.27
2022-11-20T01:24:55.873Z,15.65
2022-11-20T01:27:25.414Z,16.60
2022-11-20T01:30:01.083Z,16.25
2022-11-20T01:32:31.099Z,15.93
2022-11-20T01:35:00.693Z,19.83
2022-11-20T01:37:30.565Z,20.25
2022-11-20T01:40:00.143Z,17.35
2022-11-20T01:42:42.154Z,17.73
2022-11-20T01:45:41.685Z,18.83
2022-11-20T01:48:14.875Z,18.42
2022-11-20T01:50:45.968Z,18.52
2022-11-20T01:53:20.964Z,20.90
2022-11-20T01:55:53.943Z,18.95
2022-11-20T01:58:28.676Z,20.23
2022-11-20T02:00:58.569Z,17.08
2022-11-20T02:03:31.905Z,18.58
2022-11-20T02:06:08.852Z,19.08
2022-11-20T02:08:39.681Z,16.60
2022-11-20T02:11:09.479Z,16.45
2022-11-20T02:13:45.799Z,15.52
2022-11-20T02:16:18.989Z,19.60
2022-11-20T02:18:52.033Z,21.10
2022-11-20T02:21:40.244Z,16.92
2022-11-20T02:24:17.959Z,17.92
2022-11-20T02:26:53.546Z,17.38
2022-11-20T02:29:29.728Z,18.40
2022-11-20T02:32:01.808Z,18.27
2022-11-20T02:34:31.426Z,17.35
2022-11-20T02:37:02.829Z,13.65
2022-11-20T02:39:35.145Z,20.48
2022-11-20T02:42:06.024Z,20.08
2022-11-20T02:44:35.772Z,23.75
2022-11-20T02:47:05.549Z,17.10
2022-11-20T02:49:35.180Z,17.27
2022-11-20T02:52:05.691Z,18.15
2022-11-20T02:54:38.256Z,15.95
2022-11-20T02:57:08.383Z,20.67
2022-11-20T02:59:37.934Z,19.30
2022-11-20T03:02:07.668Z,19.17
2022-11-20T03:04:37.355Z,22.00
2022-11-20T03:07:07.670Z,19.33
2022-11-20T03:09:40.413Z,17.33
2022-11-20T03:12:10.676Z,15.50
2022-11-20T03:14:40.559Z,16.35
2022-11-20T03:17:10.536Z,16.83
2022-11-20T03:19:40.373Z,29.13
2022-11-20T03:22:10.392Z,20.45
2022-11-20T03:24:42.526Z,16.55
2022-11-20T03:27:12.171Z,20.63
2022-11-20T03:29:41.730Z,14.68
2022-11-20T03:32:11.304Z,20.00
2022-11-20T03:34:40.883Z,15.18
2022-11-20T03:37:10.679Z,20.70
2022-11-20T03:39:42.856Z,19.38
2022-11-20T03:42:32.651Z,14.50
2022-11-20T03:45:02.317Z,17.83
2022-11-20T03:47:31.931Z,18.95
2022-11-20T03:50:01.502Z,16.67
2022-11-20T03:52:31.092Z,19.42
2022-11-20T03:55:03.311Z,16.42
2022-11-20T03:57:33.645Z,16.40
2022-11-20T04:00:03.259Z,18.83
2022-11-20T04:02:33.044Z,20.23
2022-11-20T04:05:02.619Z,20.08
2022-11-20T04:07:32.458Z,17.92
2022-11-20T04:10:04.751Z,21.80
2022-11-20T04:12:36.244Z,21.02
2022-11-20T04:15:06.298Z,20.63
2022-11-20T04:17:36.006Z,22.40
2022-11-20T04:20:06.358Z,26.00
2022-11-20T04:22:36.294Z,22.02
2022-11-20T04:25:11.586Z,21.25
2022-11-20T04:27:41.136Z,21.83
2022-11-20T04:30:12.070Z,18.30
2022-11-20T04:32:41.735Z,17.05
2022-11-20T04:35:11.714Z,20.58
2022-11-20T04:37:41.349Z,18.00
2022-11-20T04:40:14.937Z,20.17
2022-11-20T04:45:14.122Z,22.83
2022-11-20T04:47:43.698Z,23.15
2022-11-20T04:50:13.664Z,23.17
2022-11-20T04:52:43.320Z,19.35
2022-11-20T04:55:15.639Z,22.85
2022-11-20T04:57:45.223Z,20.20
2022-11-20T05:00:16.400Z,17.95
2022-11-20T05:02:46.052Z,20.50
2022-11-20T05:05:15.813Z,19.55
2022-11-20T05:07:45.426Z,20.08
2022-11-20T05:10:18.055Z,20.25
2022-11-20T05:12:47.913Z,19.92
2022-11-20T05:15:17.604Z,20.15
2022-11-20T05:17:51.260Z,18.38
2022-11-20T05:20:21.200Z,18.45
2022-11-20T05:22:50.948Z,19.55
2022-11-20T05:25:23.118Z,17.00
2022-11-20T05:27:52.640Z,20.83
2022-11-20T05:30:22.439Z,16.20
2022-11-20T05:32:52.111Z,22.25
2022-11-20T05:35:21.763Z,21.10
2022-11-20T05:37:51.466Z,23.63
2022-11-20T05:40:23.842Z,17.60
2022-11-20T05:42:53.411Z,19.85
2022-11-20T05:45:22.989Z,19.45
2022-11-20T05:47:52.793Z,23.58
2022-11-20T05:50:22.608Z,19.35
2022-11-20T05:52:52.197Z,17.05
2022-11-20T05:55:24.716Z,20.02
2022-11-20T05:57:55.723Z,21.95
2022-11-20T06:00:25.642Z,20.88
2022-11-20T06:02:55.355Z,21.58
2022-11-20T06:05:24.958Z,19.73
2022-11-20T06:07:54.666Z,19.40
2022-11-20T06:10:26.933Z,28.50
2022-11-20T06:12:56.488Z,20.60
2022-11-20T06:15:26.104Z,24.13
2022-11-20T06:17:56.322Z,18.17
2022-11-20T06:20:26.178Z,17.92
2022-11-20T06:22:55.803Z,19.20
2022-11-20T06:25:27.953Z,17.33
2022-11-20T06:27:57.579Z,17.52
2022-11-20T06:30:27.218Z,19.60
2022-11-20T06:32:57.034Z,23.73
2022-11-20T06:35:26.662Z,20.92
2022-11-20T06:37:56.257Z,20.88
2022-11-20T06:40:28.514Z,19.42
2022-11-20T06:42:58.352Z,20.55
2022-11-20T06:45:27.953Z,23.02
2022-11-20T06:47:57.517Z,22.05
2022-11-20T06:50:27.071Z,20.73
2022-11-20T06:52:56.648Z,21.00
2022-11-20T06:55:28.858Z,23.38
2022-11-20T06:57:58.433Z,19.23
2022-11-20T07:00:28.537Z,21.45
2022-11-20T07:02:58.133Z,20.45
2022-11-20T07:05:27.659Z,17.15
2022-11-20T07:07:59.583Z,22.90
2022-11-20T07:10:31.724Z,23.95
2022-11-20T07:13:01.399Z,22.10
2022-11-20T07:15:31.148Z,25.20
2022-11-20T07:18:02.679Z,21.98
2022-11-20T07:20:32.572Z,22.05
2022-11-20T07:23:02.567Z,20.77
2022-11-20T07:25:34.790Z,21.80
2022-11-20T07:28:04.772Z,20.77
2022-11-20T07:30:34.853Z,23.17
2022-11-20T07:33:04.435Z,22.75
2022-11-20T07:35:34.059Z,22.88
2022-11-20T07:38:03.667Z,23.05
2022-11-20T07:40:36.032Z,22.60
2022-11-20T07:43:05.655Z,27.48
2022-11-20T07:45:35.258Z,24.02
2022-11-20T07:48:04.900Z,28.52
2022-11-20T07:50:34.510Z,25.08
2022-11-20T07:53:06.343Z,25.95
2022-11-20T07:55:38.569Z,23.38
2022-11-20T07:58:08.141Z,23.10
2022-11-20T08:00:37.812Z,30.70
2022-11-20T08:03:08.181Z,26.45
2022-11-20T08:05:38.380Z,25.65
2022-11-20T08:08:08.320Z,22.55
2022-11-20T08:10:40.880Z,22.77
2022-11-20T08:13:23.024Z,22.75
2022-11-20T08:15:54.314Z,24.73
2022-11-20T08:18:31.130Z,29.35
2022-11-20T08:21:01.892Z,25.38
2022-11-20T08:23:31.589Z,26.52
2022-11-20T08:26:03.714Z,27.33
2022-11-20T08:28:33.552Z,23.23
2022-11-20T08:31:04.015Z,29.88
2022-11-20T08:33:33.896Z,25.70
2022-11-20T08:36:04.359Z,26.48
2022-11-20T08:38:34.660Z,29.55
2022-11-20T08:41:20.908Z,27.70
2022-11-20T08:43:50.557Z,24.55
2022-11-20T08:46:20.231Z,30.23
2022-11-20T08:48:49.883Z,31.98
2022-11-20T08:51:19.837Z,26.33
2022-11-20T08:53:50.193Z,28.33
2022-11-20T08:56:22.471Z,21.83
2022-11-20T09:01:43.601Z,27.90
2022-11-20T09:04:15.368Z,26.55
2022-11-20T09:06:45.186Z,31.45
2022-11-20T09:09:14.857Z,22.95
2022-11-20T09:11:47.221Z,27.38
2022-11-20T09:14:16.908Z,29.48
2022-11-20T09:16:48.345Z,31.00
2022-11-20T09:19:35.081Z,27.90
2022-11-20T09:22:05.794Z,31.95
2022-11-20T09:24:35.421Z,27.08
2022-11-20T09:27:10.867Z,25.52
2022-11-20T09:29:40.657Z,29.50
2022-11-20T09:32:10.590Z,28.65
2022-11-20T09:34:40.673Z,27.80
2022-11-20T09:37:10.610Z,36.72
2022-11-20T09:39:40.529Z,27.33
2022-11-20T09:42:29.488Z,30.02
2022-11-20T09:45:19.603Z,39.53
2022-11-20T09:48:03.036Z,32.47
2022-11-20T09:50:36.407Z,29.95
2022-11-20T09:53:17.293Z,35.30
2022-11-20T09:55:47.107Z,30.40
2022-11-20T09:58:33.506Z,34.72
2022-11-20T10:01:10.036Z,33.25
2022-11-20T10:03:46.927Z,37.28
2022-11-20T10:06:20.853Z,35.67
2022-11-20T10:08:58.879Z,36.10
2022-11-20T10:11:39.294Z,36.22
2022-11-20T10:14:22.960Z,35.40
2022-11-20T10:17:03.433Z,28.05
2022-11-20T10:19:58.869Z,34.95
2022-11-20T10:22:41.739Z,37.60
2022-11-20T10:25:17.892Z,36.50
2022-11-20T10:28:15.158Z,30.23
2022-11-20T10:30:50.234Z,26.75
2022-11-20T10:33:23.366Z,30.13
2022-11-20T10:35:57.861Z,31.35
2022-11-20T10:38:31.458Z,30.23
2022-11-20T10:41:17.520Z,37.03
2022-11-20T10:43:48.355Z,32.70
2022-11-20T10:46:23.939Z,32.00
2022-11-20T10:48:54.753Z,29.27
2022-11-20T10:51:39.662Z,32.70
2022-11-20T10:54:23.108Z,34.38
2022-11-20T10:56:55.321Z,40.35
2022-11-20T10:59:48.355Z,36.80
2022-11-20T11:02:26.192Z,34.95
2022-11-20T11:04:56.975Z,44.40
2022-11-20T11:07:31.830Z,33.83
2022-11-20T11:10:01.460Z,33.50
2022-11-20T11:12:32.611Z,38.25
2022-11-20T11:15:02.209Z,42.65
2022-11-20T11:17:38.483Z,30.90
2022-11-20T11:20:17.978Z,41.38
2022-11-20T11:22:49.847Z,40.22
2022-11-20T11:25:30.144Z,38.20
2022-11-20T11:28:02.548Z,34.83
2022-11-20T11:30:44.337Z,48.30
2022-11-20T11:33:24.341Z,41.38
2022-11-20T11:35:58.094Z,40.85
2022-11-20T11:41:02.202Z,39.50
2022-11-20T11:43:48.649Z,41.60
2022-11-20T11:46:35.307Z,45.00
2022-11-20T11:49:55.436Z,62.83
2022-11-20T11:52:48.514Z,42.20
2022-11-20T11:55:30.835Z,43.83
2022-11-20T11:58:59.656Z,50.42
2022-11-20T12:01:43.075Z,47.50
2022-11-20T12:04:41.324Z,43.97
2022-11-20T12:07:47.730Z,45.08
2022-11-20T12:10:37.959Z,48.33
2022-11-20T12:13:47.456Z,46.80
2022-11-20T12:16:33.113Z,48.05
2022-11-20T12:19:21.211Z,44.00
2022-11-20T12:22:09.356Z,48.28
2022-11-20T12:25:37.814Z,49.60
2022-11-20T12:29:06.396Z,48.97
2022-11-20T12:32:24.388Z,44.55
2022-11-20T12:35:25.865Z,45.22
2022-11-20T12:38:32.955Z,43.00
2022-11-20T12:41:42.526Z,35.58
2022-11-20T12:45:21.020Z,45.88
2022-11-20T12:48:12.622Z,52.08
2022-11-20T12:51:26.360Z,43.10
2022-11-20T12:54:36.741Z,45.30
2022-11-20T12:58:01.358Z,50.03
2022-11-20T13:00:56.449Z,49.05
2022-11-20T13:07:24.418Z,53.63
2022-11-20T13:10:59.635Z,41.70
2022-11-20T13:17:26.856Z,45.90
2022-11-20T13:19:59.855Z,52.58
2022-11-20T13:22:45.959Z,55.65
2022-11-20T13:25:27.465Z,51.58
2022-11-20T13:27:58.213Z,51.78
2022-11-20T13:30:29.487Z,45.95
2022-11-20T13:33:02.206Z,51.45
2022-11-20T13:35:34.809Z,56.75
2022-11-20T13:38:12.321Z,59.03
2022-11-20T13:40:53.892Z,51.47
2022-11-20T13:43:31.037Z,50.25
2022-11-20T13:46:32.087Z,55.85
2022-11-20T13:49:10.666Z,47.67
2022-11-20T13:51:52.782Z,51.22
2022-11-20T13:54:52.725Z,52.67
2022-11-20T13:57:45.385Z,55.22
2022-11-20T14:00:33.252Z,62.05
2022-11-20T14:03:17.635Z,35.10
2022-11-20T14:08:33.449Z,56.92
2022-11-20T14:11:18.496Z,54.35
2022-11-20T14:14:04.281Z,45.55
2022-11-20T14:16:36.034Z,55.75
2022-11-20T14:19:34.895Z,61.85
2022-11-20T14:22:21.340Z,50.72
2022-11-20T14:24:52.430Z,55.42
2022-11-20T14:27:25.106Z,56.60
2022-11-20T14:29:55.191Z,53.15
2022-11-20T14:32:32.504Z,63.42
2022-11-20T14:35:07.192Z,63.92
2022-11-20T14:37:44.546Z,58.00
2022-11-20T14:40:32.607Z,60.80
2022-11-20T14:43:06.432Z,48.92
2022-11-20T14:45:36.328Z,70.22
2022-11-20T14:48:07.280Z,66.10
2022-11-20T14:50:38.844Z,53.00
2022-11-20T14:53:08.618Z,45.97
2022-11-20T14:55:40.942Z,58.60
2022-11-20T14:58:25.976Z,66.43
2022-11-20T15:01:00.097Z,70.40
2022-11-20T15:03:37.113Z,65.85
2022-11-20T15:06:07.884Z,51.28
2022-11-20T15:08:38.008Z,59.08
2022-11-20T15:11:21.712Z,50.88
2022-11-20T15:13:54.061Z,70.15
2022-11-20T15:16:25.086Z,64.40
2022-11-20T15:18:54.923Z,56.88
2022-11-20T15:21:25.592Z,68.97
2022-11-20T15:23:55.549Z,49.10
2022-11-20T15:26:29.452Z,56.97
2022-11-20T15:29:01.676Z,55.75
2022-11-20T15:31:31.253Z,57.00
2022-11-20T15:34:01.781Z,62.92
2022-11-20T15:36:31.494Z,64.28
2022-11-20T15:39:01.008Z,54.67
2022-11-20T15:41:30.897Z,51.80
2022-11-20T15:44:03.185Z,60.17
2022-11-20T15:46:39.218Z,50.75
2022-11-20T15:49:10.310Z,62.35
2022-11-20T15:51:41.656Z,56.92
2022-11-20T15:54:15.137Z,58.45
2022-11-20T15:56:44.912Z,55.63
2022-11-20T15:59:18.849Z,54.88
2022-11-20T16:01:48.507Z,55.60
2022-11-20T16:04:20.107Z,52.60
2022-11-20T16:06:49.753Z,59.28
2022-11-20T16:09:19.583Z,55.90
2022-11-20T16:11:49.687Z,60.67
2022-11-20T16:14:34.725Z,57.67
2022-11-20T16:17:04.277Z,54.70
2022-11-20T16:19:34.564Z,57.17
2022-11-20T16:22:04.573Z,56.70
2022-11-20T16:24:36.981Z,46.13
2022-11-20T16:27:06.603Z,59.95
2022-11-20T16:29:39.283Z,52.17
2022-11-20T16:32:09.866Z,48.55
2022-11-20T16:34:39.462Z,53.13
2022-11-20T16:37:09.719Z,49.90
2022-11-20T16:39:41.791Z,51.78
2022-11-20T16:42:11.617Z,48.85
2022-11-20T16:44:44.104Z,55.80
2022-11-20T16:47:13.753Z,50.90
2022-11-20T16:49:43.818Z,50.88
2022-11-20T16:52:13.611Z,53.65
2022-11-20T16:54:43.506Z,50.97
2022-11-20T16:57:13.246Z,53.80
2022-11-20T16:59:45.601Z,52.70
2022-11-20T17:02:15.408Z,45.30
2022-11-20T17:04:45.319Z,55.25
2022-11-20T17:07:15.288Z,49.97
2022-11-20T17:09:44.957Z,47.92
2022-11-20T17:12:15.004Z,52.47
2022-11-20T17:14:47.392Z,47.05
2022-11-20T17:17:17.242Z,45.90
2022-11-20T17:19:48.918Z,41.00
2022-11-20T17:22:18.617Z,51.38
2022-11-20T17:24:48.123Z,43.53
2022-11-20T17:27:18.259Z,57.17
2022-11-20T17:29:51.295Z,53.67
2022-11-20T17:32:21.110Z,47.47
2022-11-20T17:34:50.969Z,45.15
2022-11-20T17:37:20.614Z,37.80
2022-11-20T17:39:50.797Z,40.00
2022-11-20T17:42:37.010Z,43.10
2022-11-20T17:45:11.083Z,37.92
2022-11-20T17:47:40.843Z,43.53
2022-11-20T17:50:11.610Z,44.28
2022-11-20T17:52:41.265Z,45.30
2022-11-20T17:55:12.919Z,35.83
2022-11-20T17:57:57.068Z,39.55
2022-11-20T18:00:30.712Z,38.63
2022-11-20T18:03:00.365Z,41.97
2022-11-20T18:05:29.953Z,45.63
2022-11-20T18:07:59.562Z,34.83
2022-11-20T18:10:31.700Z,39.55
2022-11-20T18:13:01.271Z,35.22
2022-11-20T18:15:38.627Z,39.05
2022-11-20T18:18:13.258Z,36.95
2022-11-20T18:20:56.108Z,37.95
2022-11-20T18:23:36.621Z,35.90
2022-11-20T18:26:06.278Z,34.83
2022-11-20T18:28:40.498Z,43.17
2022-11-20T18:31:13.257Z,44.92
2022-11-20T18:33:43.615Z,38.40
2022-11-20T18:36:14.763Z,35.67
2022-11-20T18:38:56.657Z,37.45
2022-11-20T18:42:02.717Z,36.78
2022-11-20T18:44:53.053Z,38.13
2022-11-20T18:48:08.214Z,43.15
2022-11-20T18:51:47.316Z,33.10
2022-11-20T18:54:40.009Z,41.33
2022-11-20T18:58:09.802Z,36.80
2022-11-20T19:01:14.178Z,35.90
2022-11-20T19:07:23.894Z,40.25
2022-11-20T19:10:06.408Z,45.28
2022-11-20T19:17:06.663Z,33.80
2022-11-20T19:20:37.431Z,38.47
2022-11-20T19:23:50.361Z,40.50
2022-11-20T19:26:54.353Z,46.70
2022-11-20T19:50:47.928Z,36.75
2022-11-20T19:53:21.153Z,53.78
2022-11-20T19:55:58.671Z,43.03
2022-11-20T19:58:32.054Z,33.28
2022-11-20T20:01:32.809Z,35.55
2022-11-20T20:04:51.005Z,37.55
2022-11-20T20:07:54.903Z,39.90
2022-11-20T20:10:24.521Z,48.08
2022-11-20T20:12:54.262Z,38.20
2022-11-20T20:15:23.865Z,45.00
2022-11-20T20:17:54.612Z,40.42
2022-11-20T20:20:24.486Z,48.08
2022-11-20T20:22:56.711Z,42.38
2022-11-20T20:25:26.343Z,43.47
2022-11-20T20:27:56.115Z,45.17
2022-11-20T20:30:25.760Z,49.40
2022-11-20T20:32:56.546Z,46.30
2022-11-20T20:35:26.507Z,43.45
2022-11-20T20:37:58.745Z,42.13
2022-11-20T20:40:28.380Z,48.08
2022-11-20T20:42:58.296Z,40.80
2022-11-20T20:45:27.853Z,41.08
2022-11-20T20:47:58.078Z,55.92
2022-11-20T20:50:27.734Z,45.28
2022-11-20T20:53:00.292Z,45.88
2022-11-20T20:55:29.861Z,45.95
2022-11-20T20:57:59.450Z,41.58
2022-11-20T21:00:29.323Z,49.40
2022-11-20T21:02:58.930Z,46.40
2022-11-20T21:05:28.515Z,52.92
2022-11-20T21:08:13.111Z,40.05
2022-11-20T21:10:43.010Z,43.85
2022-11-20T21:13:12.551Z,44.58
2022-11-20T21:15:42.829Z,49.92
2022-11-20T21:18:12.457Z,42.80
2022-11-20T21:20:54.852Z,44.03
2022-11-20T21:23:26.976Z,44.35
2022-11-20T21:25:56.947Z,51.47
2022-11-20T21:28:26.560Z,41.20
2022-11-20T21:30:56.030Z,38.38
2022-11-20T21:33:25.670Z,43.33
2022-11-20T21:35:55.291Z,45.00
2022-11-20T21:38:27.451Z,42.63
2022-11-20T21:41:00.233Z,36.40
2022-11-20T21:43:30.037Z,32.77
2022-11-20T21:46:04.332Z,39.13
2022-11-20T21:48:34.839Z,38.55
2022-11-20T21:51:06.996Z,35.58
2022-11-20T21:53:39.739Z,34.75
2022-11-20T21:56:11.361Z,32.58
2022-11-20T21:58:42.724Z,22.60
2022-11-20T22:01:13.432Z,23.58
2022-11-20T22:03:43.973Z,27.30
2022-11-20T22:06:13.614Z,23.23
2022-11-20T22:08:45.891Z,24.77
2022-11-20T22:11:17.067Z,23.85
2022-11-20T22:13:59.621Z,33.55
2022-11-20T22:16:29.577Z,36.60
2022-11-20T22:19:00.922Z,42.00
2022-11-20T22:21:32.327Z,38.45
2022-11-20T22:24:04.821Z,32.67
2022-11-20T22:26:40.538Z,33.17
2022-11-20T22:29:11.267Z,36.50
2022-11-20T22:31:41.056Z,35.08
2022-11-20T22:34:13.416Z,31.60
2022-11-20T22:36:44.060Z,33.55
2022-11-20T22:39:16.554Z,35.58
2022-11-20T22:41:46.445Z,34.13
2022-11-20T22:44:17.794Z,35.17
2022-11-20T22:46:47.513Z,32.08
2022-11-20T22:49:17.455Z,30.92
2022-11-20T22:51:47.308Z,29.05
2022-11-20T22:54:19.527Z,33.03
2022-11-20T22:56:50.275Z,28.30
2022-11-20T22:59:20.109Z,32.42
2022-11-20T23:01:49.727Z,31.10
2022-11-20T23:04:19.362Z,36.17
2022-11-20T23:06:48.964Z,29.08
2022-11-20T23:09:21.112Z,29.52
2022-11-20T23:11:50.754Z,28.90
2022-11-20T23:14:27.572Z,29.75
2022-11-20T23:16:57.524Z,31.15
2022-11-20T23:19:27.198Z,36.17
2022-11-20T23:21:56.727Z,27.33
2022-11-20T23:24:29.264Z,28.02
2022-11-20T23:26:58.974Z,32.97
2022-11-20T23:29:28.582Z,32.97
2022-11-20T23:31:58.272Z,31.67
2022-11-20T23:34:28.091Z,39.45
2022-11-20T23:36:57.802Z,39.22
2022-11-20T23:39:30.067Z,37.00
2022-11-20T23:41:59.650Z,56.42
2022-11-20T23:44:30.023Z,41.38
2022-11-20T23:46:59.715Z,35.97
2022-11-20T23:49:29.397Z,39.05
2022-11-20T23:51:58.990Z,34.28
2022-11-20T23:54:31.128Z,31.73
2022-11-20T23:57:00.841Z,30.48
2022-11-20T23:59:30.579Z,49.30
